Terminal Aerodrome Forecast
Issued by NWS Sterling, VA

Current Version | Previous Version | Text Only | Print | Product List | Glossary On
Versions: 1 2 3 4 5 6 7 8 9 10 11 12 13 14 15 16 17 18 19 20 21 22
000
FTUS41 KLWX 201143
TAFMRB
TAF
KMRB 201143Z 2012/2112 31012KT P6SM FEW250
     FM202300 33006KT P6SM FEW040 SCT120
     FM210300 34004KT P6SM BKN110=

USA.gov is the U.S. government's official web portal to all federal, state and local government web resources and services.